Time;durP1;ratioP1;P1;durP2;ratioP2;P2;SDS_P1;SDS_P2;PMS_P1;PMS_P2;Temp;Humidity;BMP_temperature;BMP_pressure;BME280_temperature;BME280_humidity;BME280_pressure;Samples;Min_cycle;Max_cycle;Signal;HPM_P1;HPM_P2
2024/02/10 00:02:21;;;;;;;29.57;17.40;;;11.00;99.90;;;;;;821357;174;26417;-85
2024/02/10 00:04:53;;;;;;;23.93;16.23;;;11.00;99.90;;;;;;818734;171;26384;-85
2024/02/10 00:07:17;;;;;;;23.13;14.47;;;11.00;99.90;;;;;;824029;173;26449;-85
2024/02/10 00:09:42;;;;;;;21.23;13.70;;;11.00;99.90;;;;;;826996;173;26407;-84
2024/02/10 00:12:09;;;;;;;22.90;13.90;;;10.90;99.90;;;;;;822189;173;26455;-85
2024/02/10 00:14:36;;;;;;;19.87;14.17;;;11.00;99.90;;;;;;823620;174;26428;-85
2024/02/10 00:17:08;;;;;;;18.93;12.90;;;11.00;99.90;;;;;;818289;173;26493;-85
2024/02/10 00:19:29;;;;;;;18.87;12.20;;;11.00;99.90;;;;;;818908;173;26408;-84
2024/02/10 00:21:56;;;;;;;18.90;13.73;;;11.00;99.90;;;;;;821270;174;26440;-85
2024/02/10 00:24:26;;;;;;;18.47;12.90;;;11.00;99.90;;;;;;823982;174;26461;-85
2024/02/10 00:26:49;;;;;;;17.87;13.50;;;10.90;99.90;;;;;;819522;174;28031;-85
2024/02/10 00:29:16;;;;;;;19.73;13.10;;;10.90;99.90;;;;;;819693;174;26432;-85
2024/02/10 00:31:43;;;;;;;19.03;14.07;;;10.90;99.90;;;;;;823235;172;27088;-85
2024/02/10 00:34:09;;;;;;;16.83;11.73;;;11.00;99.90;;;;;;828766;172;26421;-84
2024/02/10 00:36:36;;;;;;;19.70;12.20;;;10.90;99.90;;;;;;828832;169;26446;-85
2024/02/10 00:39:04;;;;;;;13.30;10.60;;;10.90;99.90;;;;;;824106;172;26479;-84
2024/02/10 00:41:29;;;;;;;16.90;10.57;;;10.90;99.90;;;;;;826493;173;26540;-85
2024/02/10 00:43:56;;;;;;;15.63;10.27;;;10.90;99.90;;;;;;825603;173;26417;-85
2024/02/10 00:46:22;;;;;;;15.17;10.10;;;11.00;99.90;;;;;;821177;174;26428;-85
2024/02/10 00:48:53;;;;;;;11.63;8.67;;;10.90;99.90;;;;;;822206;171;26414;-84
2024/02/10 00:51:16;;;;;;;15.87;10.70;;;10.90;99.90;;;;;;823016;173;26438;-85
2024/02/10 00:53:42;;;;;;;12.00;9.23;;;10.90;99.90;;;;;;817766;172;25239;-85
2024/02/10 00:56:09;;;;;;;10.63;8.40;;;10.90;99.90;;;;;;825702;172;28940;-84
2024/02/10 00:58:40;;;;;;;13.67;8.53;;;10.90;99.90;;;;;;821401;174;26404;-85
2024/02/10 01:01:03;;;;;;;12.10;8.20;;;10.90;99.90;;;;;;820633;173;26443;-85
2024/02/10 01:03:30;;;;;;;10.80;8.97;;;10.90;99.90;;;;;;821345;170;26443;-86
2024/02/10 01:05:57;;;;;;;12.13;8.97;;;10.90;99.90;;;;;;824751;174;26398;-84
2024/02/10 01:08:23;;;;;;;10.50;8.10;;;10.90;99.90;;;;;;825318;171;26392;-86
2024/02/10 01:10:51;;;;;;;11.17;7.60;;;10.90;99.90;;;;;;822941;172;26521;-85
2024/02/10 01:13:17;;;;;;;12.77;8.33;;;10.90;99.90;;;;;;819797;173;27048;-84
2024/02/10 01:15:44;;;;;;;9.57;6.93;;;10.90;99.90;;;;;;824081;174;26403;-83
2024/02/10 01:18:12;;;;;;;11.73;7.23;;;10.90;99.90;;;;;;823327;170;26432;-84
2024/02/10 01:20:37;;;;;;;9.40;7.77;;;10.90;99.90;;;;;;824725;173;26922;-84
2024/02/10 01:23:04;;;;;;;9.93;8.53;;;10.90;99.90;;;;;;824675;173;26403;-84
2024/02/10 01:25:31;;;;;;;10.83;8.80;;;10.90;99.90;;;;;;822213;173;26398;-84
2024/02/10 01:27:58;;;;;;;11.43;8.67;;;10.90;99.90;;;;;;818913;172;27088;-85
2024/02/10 01:30:26;;;;;;;11.40;8.67;;;10.80;99.90;;;;;;819647;173;26420;-84
2024/02/10 01:32:51;;;;;;;14.80;8.63;;;10.80;99.90;;;;;;823779;174;26403;-85
2024/02/10 01:35:18;;;;;;;11.93;9.40;;;10.80;99.90;;;;;;819576;171;26423;-84
2024/02/10 01:37:44;;;;;;;11.13;9.07;;;10.80;99.90;;;;;;821227;173;26503;-84
2024/02/10 01:40:12;;;;;;;17.07;9.10;;;10.80;99.90;;;;;;820928;173;26445;-84
2024/02/10 01:42:39;;;;;;;12.90;8.80;;;10.80;99.90;;;;;;825733;172;26409;-84
2024/02/10 01:45:08;;;;;;;11.27;8.60;;;10.70;99.90;;;;;;825447;171;26592;-83
2024/02/10 01:47:37;;;;;;;12.23;8.67;;;10.70;99.90;;;;;;823675;173;26430;-83
2024/02/10 01:50:04;;;;;;;9.80;7.97;;;10.80;99.90;;;;;;825588;171;26425;-84
2024/02/10 01:52:30;;;;;;;10.83;8.70;;;10.70;99.90;;;;;;824093;174;26434;-84
2024/02/10 01:54:57;;;;;;;7.93;7.13;;;10.70;99.90;;;;;;817387;170;27013;-78
2024/02/10 01:57:24;;;;;;;13.30;8.13;;;10.80;99.90;;;;;;823562;173;26436;-83
2024/02/10 01:59:51;;;;;;;9.57;8.57;;;10.80;99.90;;;;;;821222;173;26962;-84
2024/02/10 02:02:18;;;;;;;11.70;8.50;;;10.80;99.90;;;;;;820979;173;26680;-85
2024/02/10 02:05:00;;;;;;;8.70;7.43;;;10.80;99.90;;;;;;814179;173;26471;-81
2024/02/10 02:07:38;;;;;;;9.23;7.30;;;10.80;99.90;;;;;;808146;176;26527;-82
2024/02/10 02:10:10;;;;;;;9.53;6.80;;;10.80;99.90;;;;;;806833;176;26445;-81
2024/02/10 02:12:49;;;;;;;7.67;6.87;;;10.70;99.90;;;;;;804516;176;27054;-83
2024/02/10 02:15:21;;;;;;;9.90;7.73;;;10.70;99.90;;;;;;807262;173;27553;-82
2024/02/10 02:17:48;;;;;;;9.30;7.17;;;10.70;99.90;;;;;;803111;176;26485;-81
2024/02/10 02:20:15;;;;;;;7.40;6.17;;;10.70;99.90;;;;;;799703;176;27023;-83
2024/02/10 02:22:53;;;;;;;7.03;5.83;;;10.70;99.90;;;;;;800489;177;26451;-82
2024/02/10 02:25:19;;;;;;;9.23;6.30;;;10.70;99.90;;;;;;804383;173;27025;-83
2024/02/10 02:27:46;;;;;;;8.90;6.63;;;10.70;99.90;;;;;;788944;176;26464;-82
2024/02/10 02:30:13;;;;;;;7.13;5.77;;;10.70;99.90;;;;;;805249;176;26432;-82
2024/02/10 02:32:40;;;;;;;7.03;5.97;;;10.70;99.90;;;;;;804055;177;26584;-83
2024/02/10 02:35:10;;;;;;;10.20;6.63;;;10.60;99.90;;;;;;802183;176;27040;-83
2024/02/10 02:37:40;;;;;;;7.43;5.73;;;10.60;99.90;;;;;;802718;176;26467;-80
2024/02/10 02:40:05;;;;;;;7.43;5.83;;;10.60;99.90;;;;;;799799;177;26435;-82
2024/02/10 02:42:34;;;;;;;13.03;10.37;;;10.60;99.90;;;;;;803040;176;26472;-85
2024/02/10 02:45:03;;;;;;;9.00;5.80;;;10.50;99.90;;;;;;802696;176;26503;-86
2024/02/10 02:47:37;;;;;;;7.20;5.10;;;10.50;99.90;;;;;;786908;180;27022;-85
2024/02/10 02:50:16;;;;;;;5.47;4.97;;;10.50;99.90;;;;;;800343;176;26439;-86
2024/02/10 02:53:05;;;;;;;7.23;5.73;;;10.40;99.90;;;;;;801503;176;26474;-88
2024/02/10 02:55:38;;;;;;;6.67;5.90;;;10.30;99.90;;;;;;804321;174;26452;-87
2024/02/10 03:01:00;;;;;;;7.40;6.37;;;10.10;99.90;;;;;;799155;176;26348;-89
2024/02/10 03:03:30;;;;;;;8.13;6.40;;;10.00;99.90;;;;;;814171;173;26362;-89
2024/02/10 03:05:57;;;;;;;8.37;6.47;;;10.00;99.90;;;;;;788735;173;26643;-84
2024/02/10 03:08:25;;;;;;;9.33;6.70;;;9.90;99.90;;;;;;765513;188;26511;-86
2024/02/10 03:10:51;;;;;;;7.70;6.63;;;9.90;99.90;;;;;;764822;187;26499;-86
2024/02/10 03:13:17;;;;;;;10.03;7.20;;;9.80;99.90;;;;;;764948;184;26511;-84
2024/02/10 03:15:46;;;;;;;11.47;7.90;;;9.90;99.90;;;;;;764736;187;26487;-84
2024/02/10 03:18:12;;;;;;;8.80;7.10;;;9.90;99.90;;;;;;764102;186;26526;-84
2024/02/10 03:20:37;;;;;;;10.40;7.90;;;9.80;99.90;;;;;;764796;186;26516;-85
2024/02/10 03:23:07;;;;;;;9.33;8.10;;;9.80;99.90;;;;;;764885;186;26508;-85
2024/02/10 03:25:31;;;;;;;9.03;7.50;;;9.80;99.90;;;;;;764789;187;26498;-84
2024/02/10 03:27:59;;;;;;;9.10;7.90;;;9.80;99.90;;;;;;764391;187;27117;-85
2024/02/10 03:30:25;;;;;;;10.13;8.23;;;9.80;99.90;;;;;;764120;187;26486;-84
2024/02/10 03:32:54;;;;;;;13.03;8.53;;;9.80;99.90;;;;;;763699;187;27045;-85
2024/02/10 03:35:18;;;;;;;11.90;8.67;;;9.80;99.90;;;;;;764459;187;26556;-84
2024/02/10 03:37:44;;;;;;;9.93;8.17;;;9.70;99.90;;;;;;764133;187;26542;-84
2024/02/10 03:40:15;;;;;;;10.73;8.80;;;9.70;99.90;;;;;;763959;188;27082;-85
2024/02/10 03:42:38;;;;;;;12.10;8.63;;;9.60;99.90;;;;;;763785;187;27044;-85
2024/02/10 03:45:06;;;;;;;16.17;9.57;;;9.60;99.90;;;;;;764004;186;26518;-84
2024/02/10 03:47:32;;;;;;;13.00;9.40;;;9.60;99.90;;;;;;764095;187;26508;-84
2024/02/10 03:49:59;;;;;;;11.43;8.60;;;9.70;99.90;;;;;;764206;187;26457;-84
2024/02/10 03:52:26;;;;;;;12.13;9.20;;;9.60;99.90;;;;;;764299;188;26520;-84
2024/02/10 03:54:52;;;;;;;15.67;9.00;;;9.60;99.90;;;;;;764374;187;26504;-84
2024/02/10 03:57:21;;;;;;;12.53;9.20;;;9.60;99.90;;;;;;763656;187;26541;-84
2024/02/10 03:59:46;;;;;;;11.67;8.97;;;9.50;99.90;;;;;;754871;188;26478;-84
2024/02/10 04:02:18;;;;;;;10.87;7.87;;;9.50;99.90;;;;;;764296;187;26559;-84
2024/02/10 04:04:40;;;;;;;12.20;9.10;;;9.50;99.90;;;;;;763750;188;26491;-84
2024/02/10 04:07:06;;;;;;;12.60;8.90;;;9.50;99.90;;;;;;766665;186;26511;-84
2024/02/10 04:09:33;;;;;;;15.07;9.00;;;9.50;99.90;;;;;;766078;187;27080;-85
2024/02/10 04:12:02;;;;;;;14.17;9.73;;;9.50;99.90;;;;;;765834;185;26493;-84
2024/02/10 04:14:26;;;;;;;14.03;9.77;;;9.50;99.90;;;;;;765544;187;26518;-83
2024/02/10 04:16:53;;;;;;;13.23;9.50;;;9.40;99.90;;;;;;764521;188;26556;-84
2024/02/10 04:19:19;;;;;;;14.00;9.33;;;9.40;99.90;;;;;;765129;187;27152;-84
2024/02/10 04:21:46;;;;;;;15.70;9.93;;;9.40;99.90;;;;;;765259;188;26622;-84
2024/02/10 04:24:16;;;;;;;13.67;10.37;;;9.40;99.90;;;;;;764947;187;26572;-84
2024/02/10 04:26:40;;;;;;;13.43;9.70;;;9.40;99.90;;;;;;765048;185;26540;-84
2024/02/10 04:29:06;;;;;;;15.20;9.33;;;9.40;99.90;;;;;;764635;187;27083;-84
2024/02/10 04:31:32;;;;;;;11.63;8.70;;;9.20;99.90;;;;;;764538;188;26487;-84
2024/02/10 04:33:59;;;;;;;12.87;9.50;;;9.20;99.90;;;;;;764594;185;26503;-84
2024/02/10 04:36:26;;;;;;;14.90;9.63;;;9.20;99.90;;;;;;764772;187;26511;-85
2024/02/10 04:38:52;;;;;;;13.07;9.80;;;9.20;99.90;;;;;;764745;187;26514;-84
2024/02/10 04:41:19;;;;;;;13.83;9.17;;;9.30;99.90;;;;;;764503;187;26485;-84
2024/02/10 04:43:45;;;;;;;15.27;9.70;;;9.30;99.90;;;;;;764606;187;26489;-85
2024/02/10 04:46:16;;;;;;;15.27;9.40;;;9.30;99.90;;;;;;764080;187;26479;-85
2024/02/10 04:48:39;;;;;;;12.63;9.20;;;9.30;99.90;;;;;;764012;187;26477;-85
2024/02/10 04:51:05;;;;;;;15.13;9.20;;;9.20;99.90;;;;;;764418;187;26509;-85
2024/02/10 04:53:32;;;;;;;10.70;8.73;;;9.10;99.90;;;;;;764102;187;26528;-85
2024/02/10 04:55:58;;;;;;;14.10;10.17;;;9.10;99.90;;;;;;763921;187;27159;-85
2024/02/10 04:58:25;;;;;;;15.07;10.27;;;9.10;99.90;;;;;;762415;187;26501;-84
2024/02/10 05:00:52;;;;;;;14.77;10.20;;;9.10;99.90;;;;;;764048;187;26500;-84
2024/02/10 05:03:18;;;;;;;11.77;9.17;;;9.10;99.90;;;;;;764491;187;26533;-85
2024/02/10 05:05:45;;;;;;;15.27;10.10;;;9.10;99.90;;;;;;763776;187;27054;-85
2024/02/10 05:08:12;;;;;;;14.40;10.23;;;9.20;99.90;;;;;;764021;186;27094;-85
2024/02/10 05:10:38;;;;;;;15.37;10.30;;;9.30;99.90;;;;;;763908;187;26500;-85
2024/02/10 05:13:05;;;;;;;13.50;10.67;;;9.20;99.90;;;;;;764158;187;26492;-84
2024/02/10 05:15:31;;;;;;;16.43;10.83;;;9.10;99.90;;;;;;764028;187;26496;-84
2024/02/10 05:18:04;;;;;;;12.73;9.87;;;9.20;99.90;;;;;;766074;186;26585;-87
2024/02/10 05:20:26;;;;;;;10.90;9.37;;;9.00;99.90;;;;;;765903;186;26503;-85
2024/02/10 05:22:52;;;;;;;13.07;9.27;;;8.90;99.90;;;;;;765072;185;26532;-84
2024/02/10 05:25:19;;;;;;;12.87;10.03;;;8.90;99.90;;;;;;765383;187;26543;-84
2024/02/10 05:27:45;;;;;;;13.17;9.60;;;9.00;99.90;;;;;;765435;184;26492;-84
2024/02/10 05:30:19;;;;;;;15.97;10.03;;;8.90;99.90;;;;;;765092;187;26504;-85
2024/02/10 05:32:44;;;;;;;13.13;9.07;;;8.90;99.90;;;;;;764829;185;26490;-84
2024/02/10 05:35:10;;;;;;;11.20;9.30;;;8.90;99.90;;;;;;764469;187;26516;-84
2024/02/10 05:37:38;;;;;;;12.60;9.40;;;8.90;99.90;;;;;;764330;185;27078;-84
2024/02/10 05:40:02;;;;;;;15.50;12.00;;;8.90;99.90;;;;;;764453;185;26512;-83
2024/02/10 05:42:28;;;;;;;14.57;10.07;;;8.90;99.90;;;;;;764307;187;26515;-84
2024/02/10 05:44:57;;;;;;;15.13;10.40;;;8.80;99.90;;;;;;764973;186;26513;-85
2024/02/10 05:47:23;;;;;;;16.73;10.60;;;8.80;99.90;;;;;;764334;187;26549;-84
2024/02/10 05:49:48;;;;;;;17.17;10.97;;;8.90;99.90;;;;;;764537;186;26507;-85
2024/02/10 05:52:15;;;;;;;15.10;9.97;;;8.80;99.90;;;;;;764877;187;26500;-85
2024/02/10 05:54:42;;;;;;;13.23;10.60;;;8.90;99.90;;;;;;764360;188;26490;-85
2024/02/10 05:57:08;;;;;;;16.30;12.03;;;8.90;99.90;;;;;;765008;187;26532;-85
2024/02/10 05:59:38;;;;;;;16.30;11.23;;;9.00;99.90;;;;;;765264;187;26507;-84
2024/02/10 06:02:04;;;;;;;19.67;11.40;;;9.00;99.90;;;;;;765434;187;26492;-85
2024/02/10 06:04:28;;;;;;;15.03;10.50;;;8.90;99.90;;;;;;764645;185;26507;-85
2024/02/10 06:06:57;;;;;;;15.40;11.13;;;8.90;99.90;;;;;;763996;184;26507;-85
2024/02/10 06:09:22;;;;;;;15.83;11.67;;;8.80;99.90;;;;;;764039;187;26500;-86
2024/02/10 06:11:48;;;;;;;17.23;12.00;;;8.80;99.90;;;;;;764422;187;26543;-84
2024/02/10 06:14:15;;;;;;;17.30;11.73;;;8.90;99.90;;;;;;764401;187;26500;-85
2024/02/10 06:16:41;;;;;;;17.13;11.93;;;8.80;99.90;;;;;;764133;187;26580;-84
2024/02/10 06:19:08;;;;;;;19.20;12.70;;;9.00;99.90;;;;;;763845;187;26564;-84
2024/02/10 06:21:35;;;;;;;20.00;12.97;;;9.00;99.90;;;;;;764115;187;26522;-85
2024/02/10 06:24:04;;;;;;;17.43;12.47;;;9.00;99.90;;;;;;764289;187;26513;-85
2024/02/10 06:26:30;;;;;;;19.10;12.83;;;9.10;99.90;;;;;;757566;185;27104;-85
2024/02/10 06:28:58;;;;;;;15.80;12.03;;;9.10;99.90;;;;;;765201;185;27064;-85
2024/02/10 06:31:25;;;;;;;13.90;10.90;;;9.00;99.90;;;;;;765769;185;27061;-85
2024/02/10 06:33:49;;;;;;;16.10;10.97;;;8.80;99.90;;;;;;765630;187;26507;-84
2024/02/10 06:36:15;;;;;;;18.17;12.13;;;8.70;99.90;;;;;;765567;187;26535;-84
2024/02/10 06:38:42;;;;;;;17.03;11.17;;;8.70;99.90;;;;;;765291;188;27122;-84
2024/02/10 06:41:08;;;;;;;21.20;12.30;;;8.80;99.90;;;;;;766410;187;26491;-83
2024/02/10 06:43:35;;;;;;;29.20;12.57;;;8.90;99.90;;;;;;768031;186;26633;-83
2024/02/10 06:46:05;;;;;;;28.00;13.53;;;9.00;99.90;;;;;;766971;186;26527;-83
2024/02/10 06:48:28;;;;;;;28.07;13.20;;;9.00;99.90;;;;;;765030;187;27256;-83
2024/02/10 06:50:54;;;;;;;28.67;12.17;;;9.00;99.90;;;;;;764786;188;26533;-83
2024/02/10 06:53:21;;;;;;;25.97;12.80;;;8.90;99.90;;;;;;764396;188;26520;-86
2024/02/10 06:55:50;;;;;;;19.87;12.47;;;9.00;99.90;;;;;;764710;188;26515;-86
2024/02/10 06:58:15;;;;;;;16.33;11.77;;;9.00;99.90;;;;;;765198;187;26507;-86
2024/02/10 07:00:41;;;;;;;18.20;12.13;;;9.00;99.90;;;;;;765092;186;26494;-85
2024/02/10 07:03:07;;;;;;;18.63;11.90;;;9.10;99.90;;;;;;765439;187;26543;-85
2024/02/10 07:05:34;;;;;;;20.17;12.13;;;9.00;99.90;;;;;;764684;188;26585;-85
2024/02/10 07:08:01;;;;;;;23.53;13.43;;;9.00;99.90;;;;;;764704;185;26842;-85
2024/02/10 07:10:28;;;;;;;24.73;12.63;;;9.00;99.90;;;;;;764377;188;26510;-86
2024/02/10 07:12:54;;;;;;;26.83;12.53;;;8.90;99.90;;;;;;766250;186;26588;-86
2024/02/10 07:15:21;;;;;;;22.60;12.97;;;8.90;99.90;;;;;;765567;186;26499;-85
2024/02/10 07:17:49;;;;;;;24.70;13.43;;;9.00;99.90;;;;;;765558;187;26483;-86
2024/02/10 07:20:18;;;;;;;32.20;13.70;;;9.00;99.90;;;;;;764458;187;26516;-86
2024/02/10 07:22:41;;;;;;;30.23;13.87;;;9.10;99.90;;;;;;764186;187;27088;-85
2024/02/10 07:25:08;;;;;;;23.67;12.10;;;9.10;99.90;;;;;;765166;187;26565;-85
2024/02/10 07:27:36;;;;;;;23.67;12.20;;;9.10;99.90;;;;;;764616;184;26518;-85
2024/02/10 07:30:03;;;;;;;25.13;12.40;;;9.10;99.90;;;;;;764343;187;27046;-85
2024/02/10 07:32:29;;;;;;;18.17;12.43;;;9.10;99.90;;;;;;764065;186;26515;-87
2024/02/10 07:34:55;;;;;;;17.30;11.73;;;9.10;99.90;;;;;;764186;187;26531;-87
2024/02/10 07:37:21;;;;;;;15.60;10.97;;;9.10;99.90;;;;;;764008;187;26515;-85
2024/02/10 07:39:50;;;;;;;14.73;11.20;;;9.10;99.90;;;;;;764877;186;26496;-86
2024/02/10 07:42:15;;;;;;;13.93;10.97;;;9.10;99.90;;;;;;766740;185;26514;-87
2024/02/10 07:44:41;;;;;;;17.03;12.47;;;9.10;99.90;;;;;;766187;187;26511;-87
2024/02/10 07:47:10;;;;;;;17.73;11.90;;;9.20;99.90;;;;;;765397;188;27076;-86
2024/02/10 07:49:34;;;;;;;17.93;11.33;;;9.10;99.90;;;;;;764887;187;26525;-86
2024/02/10 07:52:01;;;;;;;15.00;10.23;;;9.20;99.90;;;;;;765038;188;26584;-85
2024/02/10 07:54:28;;;;;;;21.70;11.13;;;9.20;99.90;;;;;;767826;174;26514;-80
2024/02/10 07:56:54;;;;;;;20.97;11.87;;;9.20;99.90;;;;;;799986;175;26475;-82
2024/02/10 07:59:23;;;;;;;17.60;11.00;;;9.20;99.90;;;;;;795101;179;26996;-81
2024/02/10 08:01:48;;;;;;;20.10;10.83;;;9.30;99.90;;;;;;807949;177;26433;-83
2024/02/10 08:04:18;;;;;;;18.20;10.40;;;9.30;99.90;;;;;;802010;176;26662;-82
2024/02/10 08:06:42;;;;;;;12.00;9.33;;;9.30;99.90;;;;;;805753;177;26451;-82
2024/02/10 08:09:07;;;;;;;14.40;10.00;;;9.40;99.90;;;;;;801332;177;26439;-82
2024/02/10 08:11:34;;;;;;;12.30;8.60;;;9.40;99.90;;;;;;804515;173;26448;-82
2024/02/10 08:14:01;;;;;;;18.03;9.80;;;9.50;99.90;;;;;;809218;177;26437;-82
2024/02/10 08:16:28;;;;;;;19.40;9.67;;;9.50;99.90;;;;;;800810;178;27015;-82
2024/02/10 08:18:55;;;;;;;12.97;9.80;;;9.50;99.90;;;;;;809541;177;26416;-82
2024/02/10 08:21:21;;;;;;;21.87;9.20;;;9.60;99.90;;;;;;786174;181;26459;-82
2024/02/10 08:23:52;;;;;;;13.80;9.60;;;9.60;99.90;;;;;;805726;177;26428;-82
2024/02/10 08:26:17;;;;;;;17.80;8.60;;;9.70;99.90;;;;;;784346;181;26459;-82
2024/02/10 08:28:42;;;;;;;14.07;8.07;;;9.80;99.90;;;;;;800740;177;26426;-81
2024/02/10 08:31:09;;;;;;;10.13;8.17;;;9.80;99.90;;;;;;790986;181;26451;-82
2024/02/10 08:33:36;;;;;;;10.63;7.53;;;9.80;99.90;;;;;;804757;174;26421;-81
2024/02/10 08:36:04;;;;;;;13.37;7.83;;;9.90;99.90;;;;;;787541;181;26467;-81
2024/02/10 08:38:29;;;;;;;11.77;6.90;;;9.90;99.90;;;;;;777901;180;26481;-81
2024/02/10 08:40:56;;;;;;;10.40;6.70;;;9.90;99.90;;;;;;802227;177;26410;-81
2024/02/10 08:43:23;;;;;;;12.53;7.00;;;10.10;99.90;;;;;;789153;178;26450;-81
2024/02/10 08:45:49;;;;;;;13.40;7.20;;;10.10;99.90;;;;;;804773;177;27040;-81
2024/02/10 08:48:16;;;;;;;10.53;7.53;;;10.20;99.90;;;;;;785774;181;26478;-82
2024/02/10 08:50:47;;;;;;;11.60;6.93;;;10.30;99.90;;;;;;799284;177;26993;-82
2024/02/10 08:53:14;;;;;;;13.47;7.13;;;10.30;99.90;;;;;;806447;176;26470;-81
2024/02/10 08:55:36;;;;;;;13.53;7.17;;;10.40;99.90;;;;;;799599;177;26433;-81
2024/02/10 08:58:04;;;;;;;8.27;7.47;;;10.40;99.90;;;;;;797643;176;26474;-81
2024/02/10 09:00:30;;;;;;;8.83;7.03;;;10.50;99.90;;;;;;797904;179;26503;-81
2024/02/10 09:02:56;;;;;;;10.67;6.53;;;10.60;99.90;;;;;;805057;176;26421;-82
2024/02/10 09:05:26;;;;;;;9.30;6.33;;;10.60;99.90;;;;;;797929;177;26514;-82
2024/02/10 09:07:50;;;;;;;8.53;6.20;;;10.70;99.90;;;;;;805359;176;26468;-81
2024/02/10 09:10:18;;;;;;;7.97;6.03;;;10.80;99.90;;;;;;794330;179;26451;-81
2024/02/10 09:12:45;;;;;;;6.63;5.93;;;10.80;99.90;;;;;;799137;177;26450;-82
2024/02/10 09:15:11;;;;;;;8.17;6.27;;;10.90;99.90;;;;;;788611;179;26456;-82
2024/02/10 09:17:38;;;;;;;14.67;5.50;;;10.90;99.90;;;;;;804723;176;26444;-82
2024/02/10 09:20:12;;;;;;;14.33;6.10;;;11.00;99.90;;;;;;787844;179;26451;-82
2024/02/10 09:22:35;;;;;;;10.13;6.70;;;11.10;99.90;;;;;;802516;176;26499;-81
2024/02/10 09:25:02;;;;;;;16.00;6.77;;;11.20;99.90;;;;;;808550;177;26469;-82
2024/02/10 09:27:29;;;;;;;8.13;5.50;;;11.30;99.90;;;;;;800954;177;26495;-81
2024/02/10 09:29:56;;;;;;;7.17;5.73;;;11.50;99.90;;;;;;786998;181;27305;-82
2024/02/10 09:32:22;;;;;;;9.57;4.90;;;11.50;99.90;;;;;;803389;177;27053;-82
2024/02/10 09:34:52;;;;;;;5.80;5.03;;;11.60;99.90;;;;;;788996;179;28102;-82
2024/02/10 09:37:17;;;;;;;9.43;5.20;;;11.70;99.90;;;;;;796550;176;26466;-84
2024/02/10 09:39:44;;;;;;;5.63;4.70;;;11.80;99.90;;;;;;789536;181;26519;-84
2024/02/10 09:42:11;;;;;;;5.30;4.80;;;11.80;99.90;;;;;;801511;173;26989;-84
2024/02/10 09:44:38;;;;;;;5.83;4.73;;;11.90;99.90;;;;;;801030;177;26459;-77
2024/02/10 09:47:07;;;;;;;5.37;4.67;;;11.90;99.90;;;;;;794028;179;26475;-78
2024/02/10 09:49:32;;;;;;;6.43;4.27;;;12.00;99.90;;;;;;804329;176;26429;-78
2024/02/10 09:51:58;;;;;;;6.10;4.33;;;12.10;99.90;;;;;;795157;179;26426;-77
2024/02/10 09:54:24;;;;;;;7.43;4.13;;;12.20;99.90;;;;;;785614;180;26450;-78
2024/02/10 09:56:51;;;;;;;5.00;4.37;;;12.30;99.90;;;;;;804518;177;26463;-76
2024/02/10 09:59:21;;;;;;;7.30;4.20;;;12.20;99.90;;;;;;804191;179;26422;-77
2024/02/10 10:01:44;;;;;;;5.77;4.07;;;12.40;99.90;;;;;;788831;177;26490;-77
2024/02/10 10:04:12;;;;;;;5.50;4.40;;;12.50;99.90;;;;;;808349;176;26419;-77
2024/02/10 10:06:43;;;;;;;6.30;3.90;;;12.60;99.90;;;;;;807932;174;26443;-77
2024/02/10 10:09:07;;;;;;;4.80;3.70;;;12.80;99.90;;;;;;806680;177;27094;-77
2024/02/10 10:11:33;;;;;;;6.63;4.00;;;12.90;99.90;;;;;;784581;179;26446;-77
2024/02/10 10:14:00;;;;;;;6.20;3.80;;;13.00;99.90;;;;;;800718;176;26472;-77
2024/02/10 10:16:27;;;;;;;4.50;3.80;;;13.10;99.90;;;;;;802433;176;26498;-77
2024/02/10 10:18:55;;;;;;;12.07;3.93;;;13.20;99.90;;;;;;803044;176;27046;-77
2024/02/10 10:21:20;;;;;;;5.83;3.40;;;13.20;99.90;;;;;;798874;176;26454;-77
2024/02/10 10:23:47;;;;;;;7.30;3.60;;;13.20;99.90;;;;;;785297;179;26467;-77
2024/02/10 10:26:13;;;;;;;5.57;4.10;;;13.10;99.90;;;;;;801806;176;26941;-77
2024/02/10 10:28:41;;;;;;;8.20;3.73;;;13.20;99.90;;;;;;809527;176;27027;-76
2024/02/10 10:31:08;;;;;;;5.40;3.50;;;13.30;99.90;;;;;;803694;177;26477;-78
2024/02/10 10:33:34;;;;;;;4.97;3.93;;;13.50;99.90;;;;;;803614;176;26424;-76
2024/02/10 10:36:02;;;;;;;4.80;3.63;;;13.50;99.90;;;;;;802979;176;26431;-77
2024/02/10 10:38:28;;;;;;;4.43;3.47;;;13.60;99.90;;;;;;792504;179;26523;-77
2024/02/10 10:40:54;;;;;;;5.27;4.07;;;13.60;99.90;;;;;;801370;177;26428;-77
2024/02/10 10:43:21;;;;;;;5.57;3.90;;;13.40;99.90;;;;;;795454;179;27010;-76
2024/02/10 10:45:48;;;;;;;4.53;3.90;;;13.50;99.90;;;;;;792442;179;28131;-76
2024/02/10 10:48:15;;;;;;;5.87;4.30;;;13.50;99.90;;;;;;803162;177;26478;-76
2024/02/10 10:50:41;;;;;;;5.73;4.33;;;13.70;99.90;;;;;;805862;177;26470;-76
2024/02/10 10:53:09;;;;;;;4.37;3.97;;;13.70;99.90;;;;;;790772;179;26607;-77
2024/02/10 10:55:44;;;;;;;13.67;4.70;;;13.80;99.90;;;;;;802797;176;27046;-76
2024/02/10 10:58:11;;;;;;;7.13;4.10;;;14.00;99.90;;;;;;801330;176;26474;-76
2024/02/10 11:00:37;;;;;;;4.10;3.70;;;15.00;99.00;;;;;;798039;177;26976;-77
2024/02/10 11:03:04;;;;;;;4.87;3.47;;;16.30;94.80;;;;;;794941;179;26475;-77
2024/02/10 11:05:36;;;;;;;4.80;3.63;;;17.50;92.90;;;;;;798259;177;26436;-77
2024/02/10 11:08:02;;;;;;;3.90;3.00;;;18.50;91.80;;;;;;779855;179;26487;-77
2024/02/10 11:10:35;;;;;;;4.13;3.13;;;18.60;90.80;;;;;;800009;176;26484;-77
2024/02/10 11:13:01;;;;;;;5.77;3.50;;;18.40;88.00;;;;;;804347;176;26472;-78
2024/02/10 11:15:27;;;;;;;5.37;3.00;;;18.30;90.00;;;;;;802056;176;26764;-78
2024/02/10 11:17:57;;;;;;;3.93;3.57;;;17.60;90.00;;;;;;803991;175;26490;-81
2024/02/10 11:20:28;;;;;;;5.10;3.63;;;17.00;90.70;;;;;;802742;176;26435;-81
2024/02/10 11:22:53;;;;;;;5.97;3.60;;;17.10;92.00;;;;;;806780;177;26425;-81
2024/02/10 11:25:21;;;;;;;5.70;3.60;;;17.10;92.40;;;;;;791043;179;26838;-80
2024/02/10 11:27:45;;;;;;;5.20;3.47;;;17.40;91.80;;;;;;792999;178;26546;-80
2024/02/10 11:30:12;;;;;;;5.87;3.17;;;17.60;92.00;;;;;;802813;176;26468;-82
2024/02/10 11:32:41;;;;;;;6.33;3.30;;;17.30;89.90;;;;;;798094;178;26427;-80
2024/02/10 11:35:08;;;;;;;4.13;2.83;;;17.20;91.80;;;;;;794116;179;26437;-81
2024/02/10 11:37:33;;;;;;;3.23;2.93;;;17.30;91.70;;;;;;794087;177;26463;-80
2024/02/10 11:40:00;;;;;;;3.77;3.00;;;17.10;90.80;;;;;;801219;178;26428;-80
2024/02/10 11:42:30;;;;;;;3.30;2.50;;;17.30;92.40;;;;;;795113;179;27008;-82
2024/02/10 11:44:54;;;;;;;4.20;2.97;;;17.60;90.20;;;;;;799728;179;27005;-81
2024/02/10 11:47:21;;;;;;;4.63;2.73;;;17.40;90.50;;;;;;797281;178;26460;-81
2024/02/10 11:49:48;;;;;;;3.17;2.70;;;17.40;91.20;;;;;;800202;176;26454;-81
2024/02/10 11:52:16;;;;;;;4.33;2.90;;;17.30;90.10;;;;;;804548;178;26465;-81
2024/02/10 11:54:43;;;;;;;5.23;2.70;;;16.90;90.90;;;;;;799920;177;26449;-81
2024/02/10 11:57:10;;;;;;;2.83;2.37;;;16.40;91.90;;;;;;800901;177;26501;-82
2024/02/10 11:59:37;;;;;;;3.80;2.83;;;16.00;93.40;;;;;;801176;178;27014;-81
2024/02/10 12:02:08;;;;;;;2.50;2.30;;;15.80;93.90;;;;;;801482;178;26441;-82
2024/02/10 12:04:34;;;;;;;3.60;3.10;;;15.60;94.00;;;;;;799530;177;26440;-81
2024/02/10 12:07:01;;;;;;;4.13;2.50;;;15.80;93.30;;;;;;798435;178;26464;-78
2024/02/10 12:09:27;;;;;;;4.77;3.00;;;15.90;94.50;;;;;;796699;178;26489;-81
2024/02/10 12:12:00;;;;;;;3.70;2.70;;;16.00;93.10;;;;;;796483;178;26448;-80
2024/02/10 12:14:29;;;;;;;2.53;2.30;;;16.10;93.30;;;;;;795554;181;26981;-82
2024/02/10 12:17:19;;;;;;;3.17;2.47;;;16.00;92.20;;;;;;796661;179;26459;-80
2024/02/10 12:19:40;;;;;;;2.37;2.13;;;16.00;92.40;;;;;;778044;180;26513;-81
2024/02/10 12:22:09;;;;;;;3.37;2.47;;;15.80;93.00;;;;;;793935;180;26465;-81
2024/02/10 12:24:37;;;;;;;3.40;3.00;;;15.50;93.50;;;;;;806841;176;26545;-80
2024/02/10 12:27:04;;;;;;;3.63;2.43;;;15.40;94.80;;;;;;796614;178;26476;-80
2024/02/10 12:29:31;;;;;;;2.40;2.20;;;15.30;94.80;;;;;;805577;176;26572;-79
2024/02/10 12:31:58;;;;;;;4.00;2.43;;;15.00;96.00;;;;;;807993;176;26513;-80
2024/02/10 12:34:25;;;;;;;3.60;2.70;;;14.80;96.70;;;;;;804908;177;26435;-80
2024/02/10 12:36:52;;;;;;;3.37;2.90;;;14.70;96.10;;;;;;799475;176;26473;-81
2024/02/10 12:39:19;;;;;;;4.07;3.00;;;14.50;95.90;;;;;;800485;178;26448;-82
2024/02/10 12:41:45;;;;;;;4.20;2.90;;;14.40;98.10;;;;;;804118;177;26444;-81
2024/02/10 12:44:13;;;;;;;2.67;2.40;;;14.30;98.60;;;;;;804340;176;26425;-81
2024/02/10 12:46:39;;;;;;;6.33;2.73;;;14.20;97.70;;;;;;794030;179;26487;-81